createdAt,value
2019-04-05T00:01:15.251Z,77.74
2019-04-05T00:03:54.519Z,77.54
2019-04-05T00:06:24.798Z,77.63
2019-04-05T00:08:55.161Z,77.44
2019-04-05T00:11:25.533Z,77.68
2019-04-05T00:13:58.440Z,77.83
2019-04-05T00:16:30.414Z,77.71
2019-04-05T00:19:00.715Z,77.55
2019-04-05T00:21:31.055Z,77.67
2019-04-05T00:24:01.304Z,77.86
2019-04-05T00:26:34.914Z,77.79
2019-04-05T00:29:08.111Z,77.86
2019-04-05T00:31:40.575Z,77.54
2019-04-05T00:34:14.608Z,77.41
2019-04-05T00:36:44.806Z,77.46
2019-04-05T00:39:14.944Z,77.69
2019-04-05T00:41:45.118Z,77.42
2019-04-05T00:44:15.290Z,77.27
2019-04-05T00:46:48.507Z,77.50
2019-04-05T00:49:18.634Z,78.10
2019-04-05T00:51:48.785Z,77.85
2019-04-05T00:54:19.034Z,77.85
2019-04-05T00:56:49.226Z,77.99
2019-04-05T00:59:19.407Z,77.84
2019-04-05T01:01:49.575Z,77.68
2019-04-05T01:04:19.724Z,77.75
2019-04-05T01:06:49.867Z,77.85
2019-04-05T01:09:20.001Z,78.51
2019-04-05T01:11:50.568Z,78.20
2019-04-05T01:14:20.843Z,77.88
2019-04-05T01:16:50.988Z,78.50
2019-04-05T01:19:21.884Z,78.41
2019-04-05T01:21:53.542Z,78.53
2019-04-05T01:24:24.996Z,78.40
2019-04-05T01:26:56.270Z,78.52
2019-04-05T01:29:26.475Z,78.79
2019-04-05T01:31:56.659Z,78.91
2019-04-05T01:34:28.640Z,79.17
2019-04-05T01:36:59.233Z,79.27
2019-04-05T01:39:29.352Z,79.37
2019-04-05T01:41:59.771Z,79.15
2019-04-05T01:44:31.332Z,78.88
2019-04-05T01:47:02.514Z,78.84
2019-04-05T01:49:32.650Z,78.70
2019-04-05T01:52:02.768Z,78.75
2019-04-05T01:54:32.998Z,78.72
2019-04-05T01:57:04.327Z,78.48
2019-04-05T01:59:34.689Z,78.86
2019-04-05T02:02:04.910Z,78.61
2019-04-05T02:04:35.627Z,79.02
2019-04-05T02:07:05.797Z,78.96
2019-04-05T02:09:36.621Z,78.81
2019-04-05T02:12:06.780Z,78.73
2019-04-05T02:14:36.947Z,78.67
2019-04-05T02:17:07.964Z,78.56
2019-04-05T02:19:39.286Z,78.58
2019-04-05T02:22:09.716Z,78.44
2019-04-05T02:24:39.870Z,78.51
2019-04-05T02:27:10.178Z,78.36
2019-04-05T02:29:41.316Z,78.65
2019-04-05T02:32:11.546Z,79.03
2019-04-05T02:34:41.659Z,78.94
2019-04-05T02:37:11.825Z,78.83
2019-04-05T02:39:42.046Z,78.98
2019-04-05T02:42:13.827Z,78.99
2019-04-05T02:44:49.201Z,78.98
2019-04-05T02:47:19.888Z,79.17
2019-04-05T02:49:52.477Z,79.15
2019-04-05T02:52:23.473Z,78.93
2019-04-05T02:54:55.566Z,78.96
2019-04-05T02:57:33.078Z,78.91
2019-04-05T03:00:03.459Z,79.30
2019-04-05T03:02:36.457Z,79.33
2019-04-05T03:05:06.667Z,79.39
2019-04-05T03:07:37.179Z,79.40
2019-04-05T03:10:07.746Z,79.38
2019-04-05T03:12:42.654Z,79.56
2019-04-05T03:15:13.737Z,79.32
2019-04-05T03:17:43.937Z,79.30
2019-04-05T03:20:14.049Z,79.27
2019-04-05T03:22:44.244Z,79.47
2019-04-05T03:25:14.475Z,79.12
2019-04-05T03:27:47.583Z,79.21
2019-04-05T03:30:18.356Z,79.44
2019-04-05T03:32:49.189Z,79.41
2019-04-05T03:35:22.835Z,79.69
2019-04-05T03:37:53.011Z,79.32
2019-04-05T03:40:23.870Z,79.23
2019-04-05T03:42:54.213Z,79.15
2019-04-05T03:45:26.367Z,79.42
2019-04-05T03:47:56.608Z,79.14
2019-04-05T03:50:34.409Z,79.35
2019-04-05T03:53:08.037Z,79.51
2019-04-05T03:55:38.162Z,79.65
2019-04-05T03:58:08.814Z,79.60
2019-04-05T04:00:38.932Z,80.10
2019-04-05T04:03:09.044Z,79.94
2019-04-05T04:05:39.402Z,80.10
2019-04-05T04:08:13.773Z,80.26
2019-04-05T04:10:44.281Z,80.26
2019-04-05T04:13:14.441Z,80.23
2019-04-05T04:15:45.097Z,80.17
2019-04-05T04:18:17.076Z,80.53
2019-04-05T04:20:50.570Z,80.77
2019-04-05T04:23:24.195Z,80.73
2019-04-05T04:25:55.051Z,80.89
2019-04-05T04:28:25.864Z,80.97
2019-04-05T04:31:04.758Z,81.22
2019-04-05T04:33:35.054Z,81.29
2019-04-05T04:36:07.778Z,81.40
2019-04-05T04:38:43.036Z,81.39
2019-04-05T04:41:13.699Z,81.34
2019-04-05T04:43:47.461Z,81.25
2019-04-05T04:46:19.229Z,81.04
2019-04-05T04:48:51.184Z,81.09
2019-04-05T04:51:28.430Z,81.49
2019-04-05T04:54:06.318Z,81.50
2019-04-05T04:56:36.567Z,81.44
2019-04-05T04:59:06.775Z,81.54
2019-04-05T05:01:37.345Z,81.40
2019-04-05T05:04:11.339Z,81.00
2019-04-05T05:06:42.139Z,80.78
2019-04-05T05:09:13.870Z,80.93
2019-04-05T05:11:44.148Z,80.69
2019-04-05T05:14:14.683Z,80.57
2019-04-05T05:16:55.195Z,80.25
2019-04-05T05:19:32.228Z,80.14
2019-04-05T05:24:49.209Z,80.43
2019-04-05T05:27:20.292Z,80.50
2019-04-05T05:29:52.552Z,80.96
2019-04-05T05:32:25.394Z,80.87
2019-04-05T05:35:01.844Z,80.57
2019-04-05T05:37:27.942Z,80.39
2019-04-05T05:40:00.986Z,80.51
2019-04-05T05:42:31.223Z,81.08
2019-04-05T05:45:01.540Z,80.83
2019-04-05T05:47:32.803Z,80.94
2019-04-05T05:50:08.853Z,80.70
2019-04-05T05:52:40.207Z,80.63
2019-04-05T05:55:10.605Z,80.78
2019-04-05T05:57:40.817Z,80.76
2019-04-05T06:00:12.183Z,80.57
2019-04-05T06:02:42.433Z,80.89
2019-04-05T06:05:12.880Z,80.88
2019-04-05T06:07:43.148Z,80.75
2019-04-05T06:10:13.495Z,80.80
2019-04-05T06:12:43.852Z,80.93
2019-04-05T06:15:15.493Z,80.86
2019-04-05T06:17:45.693Z,81.18
2019-04-05T06:20:16.121Z,81.18
2019-04-05T06:22:47.709Z,81.05
2019-04-05T06:25:19.010Z,80.88
2019-04-05T06:27:49.405Z,80.62
2019-04-05T06:30:19.776Z,80.62
2019-04-05T06:32:50.016Z,80.55
2019-04-05T06:35:20.157Z,80.41
2019-04-05T06:37:50.419Z,80.63
2019-04-05T06:40:20.661Z,80.84
2019-04-05T06:42:50.943Z,80.98
2019-04-05T06:45:21.272Z,80.95
2019-04-05T06:47:51.617Z,80.46
2019-04-05T06:50:22.111Z,80.76
2019-04-05T06:52:52.400Z,80.90
2019-04-05T06:55:22.619Z,81.22
2019-04-05T06:57:52.994Z,81.53
2019-04-05T07:00:29.541Z,81.18
2019-04-05T07:03:00.213Z,81.20
2019-04-05T07:05:31.482Z,81.69
2019-04-05T07:08:01.827Z,81.50
2019-04-05T07:10:32.324Z,81.50
2019-04-05T07:13:02.983Z,81.12
2019-04-05T07:15:33.215Z,81.07
2019-04-05T07:18:03.528Z,80.87
2019-04-05T07:20:33.832Z,80.67
2019-04-05T07:23:04.103Z,80.90
2019-04-05T07:25:34.491Z,80.76
2019-04-05T07:28:04.660Z,80.89
2019-04-05T07:30:34.929Z,80.88
2019-04-05T07:33:05.309Z,81.01
2019-04-05T07:35:35.511Z,80.91
2019-04-05T07:38:06.093Z,80.77
2019-04-05T07:40:36.428Z,80.67
2019-04-05T07:43:09.721Z,80.59
2019-04-05T07:45:39.984Z,80.48
2019-04-05T07:48:10.230Z,80.36
2019-04-05T07:50:40.599Z,79.97
2019-04-05T07:53:11.190Z,79.99
2019-04-05T07:55:41.376Z,79.93
2019-04-05T07:58:11.557Z,79.93
2019-04-05T08:00:45.821Z,79.85
2019-04-05T08:03:16.645Z,79.76
2019-04-05T08:05:47.970Z,80.05
2019-04-05T08:08:30.956Z,79.60
2019-04-05T08:11:02.332Z,79.49
2019-04-05T08:13:36.590Z,79.69
2019-04-05T08:16:06.893Z,79.70
2019-04-05T08:18:37.038Z,79.40
2019-04-05T08:21:07.350Z,79.17
2019-04-05T08:23:37.526Z,79.33
2019-04-05T08:26:07.750Z,79.42
2019-04-05T08:28:38.027Z,79.24
2019-04-05T08:31:10.805Z,78.88
2019-04-05T08:33:40.506Z,78.84
2019-04-05T08:36:10.761Z,78.87
2019-04-05T08:38:40.983Z,78.62
2019-04-05T08:41:11.203Z,78.82
2019-04-05T08:43:41.470Z,78.56
2019-04-05T08:46:11.716Z,78.48
2019-04-05T08:48:41.867Z,78.17
2019-04-05T08:51:12.133Z,78.09
2019-04-05T08:53:42.284Z,78.42
2019-04-05T08:56:13.573Z,77.96
2019-04-05T08:58:43.718Z,77.83
2019-04-05T09:01:14.024Z,77.27
2019-04-05T09:03:44.262Z,76.91
2019-04-05T09:06:14.521Z,77.46
2019-04-05T09:08:44.969Z,77.64
2019-04-05T09:11:15.185Z,77.53
2019-04-05T09:13:45.354Z,77.49
2019-04-05T09:16:15.671Z,77.74
2019-04-05T09:18:45.834Z,77.50
2019-04-05T09:21:17.783Z,77.52
2019-04-05T09:23:49.060Z,77.53
2019-04-05T09:26:21.007Z,77.36
2019-04-05T09:28:51.229Z,76.99
2019-04-05T09:31:21.426Z,77.08
2019-04-05T09:33:56.073Z,77.09
2019-04-05T09:36:29.729Z,77.15
2019-04-05T09:39:00.053Z,76.42
2019-04-05T09:41:30.249Z,76.13
2019-04-05T09:44:00.643Z,75.74
2019-04-05T09:46:45.487Z,75.05
2019-04-05T09:49:03.337Z,75.13
2019-04-05T09:51:34.717Z,75.40
2019-04-05T09:54:04.916Z,74.77
2019-04-05T09:56:35.107Z,74.32
2019-04-05T09:59:05.662Z,74.80
2019-04-05T10:01:36.031Z,75.22
2019-04-05T10:04:06.219Z,74.56
2019-04-05T10:06:36.397Z,75.12
2019-04-05T10:09:08.979Z,74.87
2019-04-05T10:11:39.251Z,74.41
2019-04-05T10:14:09.517Z,74.44
2019-04-05T10:16:39.666Z,74.42
2019-04-05T10:19:10.061Z,74.41
2019-04-05T10:21:40.337Z,74.37
2019-04-05T10:24:10.612Z,74.39
2019-04-05T10:26:40.835Z,73.89
2019-04-05T10:29:11.053Z,73.51
2019-04-05T10:31:41.258Z,73.95
2019-04-05T10:34:11.498Z,73.80
2019-04-05T10:36:41.665Z,73.72
2019-04-05T10:39:11.941Z,73.22
2019-04-05T10:41:42.205Z,73.62
2019-04-05T10:44:13.455Z,73.93
2019-04-05T10:46:43.632Z,73.73
2019-04-05T10:49:15.265Z,73.95
2019-04-05T10:51:46.595Z,73.75
2019-04-05T10:54:16.771Z,73.49
2019-04-05T10:56:47.019Z,73.49
2019-04-05T10:59:17.206Z,73.43
2019-04-05T11:01:47.427Z,72.81
2019-04-05T11:04:17.580Z,72.77
2019-04-05T11:06:47.858Z,73.10
2019-04-05T11:09:19.147Z,72.92
2019-04-05T11:12:30.703Z,72.79
2019-04-05T11:15:02.248Z,72.54
2019-04-05T11:17:33.436Z,72.32
2019-04-05T11:20:20.228Z,72.64
2019-04-05T11:22:38.022Z,72.68
2019-04-05T11:25:08.885Z,72.65
2019-04-05T11:27:39.470Z,72.61
2019-04-05T11:30:11.396Z,72.86
2019-04-05T11:32:41.865Z,72.40
2019-04-05T11:35:14.954Z,72.55
2019-04-05T11:37:44.662Z,72.34
2019-04-05T11:40:15.506Z,72.44
2019-04-05T11:42:48.768Z,73.04
2019-04-05T11:45:20.266Z,73.18
2019-04-05T11:47:53.687Z,73.27
2019-04-05T11:50:34.567Z,72.90
2019-04-05T11:52:57.064Z,72.32
2019-04-05T11:55:27.270Z,72.07
2019-04-05T11:57:58.628Z,72.69
2019-04-05T12:00:53.413Z,72.75
2019-04-05T12:03:23.954Z,72.93
2019-04-05T12:05:54.785Z,72.56
2019-04-05T12:08:26.772Z,72.38
2019-04-05T12:10:59.113Z,71.98
2019-04-05T12:13:32.323Z,71.63
2019-04-05T12:16:03.673Z,71.53
2019-04-05T12:18:36.192Z,71.28
2019-04-05T12:21:06.773Z,71.82
2019-04-05T12:23:41.271Z,71.49
2019-04-05T12:26:13.470Z,71.76
2019-04-05T12:28:44.416Z,72.08
2019-04-05T12:31:15.732Z,71.29
2019-04-05T12:33:49.185Z,71.48
2019-04-05T12:36:22.277Z,71.49
2019-04-05T12:38:54.363Z,71.69
2019-04-05T12:41:25.595Z,70.11
2019-04-05T12:43:56.572Z,69.73
2019-04-05T12:46:28.353Z,69.45
2019-04-05T12:48:58.861Z,69.89
2019-04-05T12:51:29.752Z,70.42
2019-04-05T12:54:00.527Z,70.99
2019-04-05T12:56:31.252Z,70.69
2019-04-05T12:59:02.662Z,70.81
2019-04-05T13:01:38.905Z,70.81
2019-04-05T13:04:11.761Z,70.14
2019-04-05T13:06:45.050Z,70.09
2019-04-05T13:09:21.385Z,70.34
2019-04-05T13:11:57.525Z,70.00
2019-04-05T13:14:31.438Z,70.47
2019-04-05T13:17:02.990Z,69.91
2019-04-05T13:19:36.491Z,69.89
2019-04-05T13:22:12.495Z,69.56
2019-04-05T13:24:42.726Z,69.71
2019-04-05T13:27:16.770Z,70.02
2019-04-05T13:29:49.203Z,69.80
2019-04-05T13:32:22.368Z,69.85
2019-04-05T13:34:53.578Z,70.78
2019-04-05T13:37:25.801Z,70.36
2019-04-05T13:39:57.670Z,70.25
2019-04-05T13:42:31.530Z,70.28
2019-04-05T13:45:03.847Z,69.63
2019-04-05T13:47:37.884Z,69.48
2019-04-05T13:50:11.426Z,68.58
2019-04-05T13:52:44.460Z,68.56
2019-04-05T13:55:16.855Z,68.64
2019-04-05T13:57:51.391Z,68.60
2019-04-05T14:00:21.951Z,68.35
2019-04-05T14:02:52.523Z,67.69
2019-04-05T14:05:22.870Z,67.63
2019-04-05T14:08:09.777Z,67.66
2019-04-05T14:10:31.204Z,67.84
2019-04-05T14:13:01.331Z,67.49
2019-04-05T14:15:31.653Z,67.65
2019-04-05T14:18:02.071Z,67.79
2019-04-05T14:20:32.309Z,68.59
2019-04-05T14:23:02.605Z,67.66
2019-04-05T14:25:32.767Z,67.67
2019-04-05T14:28:04.649Z,67.62
2019-04-05T14:30:35.021Z,68.00
2019-04-05T14:33:05.245Z,68.21
2019-04-05T14:35:35.415Z,69.05
2019-04-05T14:38:05.635Z,68.90
2019-04-05T14:40:36.909Z,69.36
2019-04-05T14:43:07.113Z,68.65
2019-04-05T14:45:37.287Z,68.10
2019-04-05T14:48:07.575Z,68.20
2019-04-05T14:50:37.840Z,68.61
2019-04-05T14:53:08.045Z,68.70
2019-04-05T14:55:38.265Z,69.00
2019-04-05T14:58:10.492Z,69.62
2019-04-05T15:00:40.343Z,69.07
2019-04-05T15:03:10.795Z,69.35
2019-04-05T15:05:41.071Z,69.05
2019-04-05T15:08:11.399Z,69.57
2019-04-05T15:10:41.607Z,69.44
2019-04-05T15:13:11.813Z,69.90
2019-04-05T15:15:42.038Z,69.62
2019-04-05T15:18:12.236Z,69.64
2019-04-05T15:20:42.449Z,69.96
2019-04-05T15:23:14.049Z,70.29
2019-04-05T15:25:44.456Z,70.42
2019-04-05T15:28:16.965Z,70.61
2019-04-05T15:30:49.691Z,70.78
2019-04-05T15:33:21.139Z,72.05
2019-04-05T15:35:51.580Z,71.66
2019-04-05T15:38:22.830Z,71.74
2019-04-05T15:40:53.202Z,71.76
2019-04-05T15:43:23.624Z,71.73
2019-04-05T15:45:53.903Z,71.88
2019-04-05T15:48:24.168Z,71.81
2019-04-05T15:50:57.677Z,71.94
2019-04-05T15:53:26.344Z,71.98
2019-04-05T15:55:57.205Z,71.73
2019-04-05T15:58:27.377Z,72.17
2019-04-05T16:00:57.782Z,72.21
2019-04-05T16:03:27.974Z,72.06
2019-04-05T16:05:58.483Z,71.68
2019-04-05T16:08:28.987Z,72.23
2019-04-05T16:10:59.402Z,72.30
2019-04-05T16:13:30.067Z,72.44
2019-04-05T16:16:00.387Z,72.56
2019-04-05T16:18:30.586Z,72.90
2019-04-05T16:21:00.756Z,72.92
2019-04-05T16:23:31.324Z,72.85
2019-04-05T16:26:01.506Z,73.11
2019-04-05T16:28:31.918Z,73.06
2019-04-05T16:31:02.052Z,73.26
2019-04-05T16:33:32.239Z,73.42
2019-04-05T16:36:02.618Z,73.83
2019-04-05T16:38:33.197Z,73.55
2019-04-05T16:41:03.491Z,73.88
2019-04-05T16:43:33.874Z,74.24
2019-04-05T16:46:04.133Z,74.32
2019-04-05T16:48:34.485Z,74.71
2019-04-05T16:51:04.839Z,74.60
2019-04-05T16:53:35.138Z,74.44
2019-04-05T16:56:05.327Z,74.47
2019-04-05T16:58:35.702Z,74.35
2019-04-05T17:01:05.912Z,74.13
2019-04-05T17:03:36.196Z,73.94
2019-04-05T17:06:06.492Z,74.33
2019-04-05T17:08:36.814Z,74.54
2019-04-05T17:11:12.808Z,74.37
2019-04-05T17:13:44.280Z,74.55
2019-04-05T17:16:14.880Z,74.50
2019-04-05T17:18:45.107Z,74.66
2019-04-05T17:21:15.264Z,75.03
2019-04-05T17:23:45.672Z,75.22
2019-04-05T17:26:15.891Z,75.16
2019-04-05T17:28:46.271Z,75.37
2019-04-05T17:31:16.519Z,75.54
2019-04-05T17:33:46.992Z,75.79
2019-04-05T17:36:17.143Z,75.88
2019-04-05T17:38:47.425Z,75.76
2019-04-05T17:41:17.593Z,75.39
2019-04-05T17:43:47.840Z,74.87
2019-04-05T17:46:18.087Z,75.10
2019-04-05T17:48:51.968Z,75.37
2019-04-05T17:51:23.508Z,75.68
2019-04-05T17:53:54.081Z,75.14
2019-04-05T17:56:24.491Z,75.77
2019-04-05T17:58:56.684Z,75.29
2019-04-05T18:01:26.850Z,75.17
2019-04-05T18:03:57.235Z,74.92
2019-04-05T18:06:28.488Z,74.57
2019-04-05T18:08:58.859Z,75.03
2019-04-05T18:11:29.424Z,74.63
2019-04-05T18:13:59.700Z,74.98
2019-04-05T18:16:30.251Z,74.48
2019-04-05T18:19:01.559Z,74.80
2019-04-05T18:21:31.714Z,75.16
2019-04-05T18:24:02.111Z,74.86
2019-04-05T18:26:32.336Z,74.87
2019-04-05T18:29:05.748Z,75.05
2019-04-05T18:31:35.989Z,75.05
2019-04-05T18:34:06.310Z,76.09
2019-04-05T18:36:36.452Z,75.48
2019-04-05T18:39:08.301Z,74.79
2019-04-05T18:41:38.648Z,74.68
2019-04-05T18:44:08.850Z,75.12
2019-04-05T18:46:39.051Z,74.65
2019-04-05T18:49:09.191Z,75.11
2019-04-05T18:51:39.366Z,74.60
2019-04-05T18:54:09.597Z,75.27
2019-04-05T18:56:39.804Z,75.09
2019-04-05T18:59:09.958Z,75.36
2019-04-05T19:01:40.263Z,74.90
2019-04-05T19:04:10.429Z,75.06
2019-04-05T19:06:40.988Z,75.05
2019-04-05T19:09:12.219Z,74.95
2019-04-05T19:11:43.462Z,75.15
2019-04-05T19:14:13.732Z,74.87
2019-04-05T19:16:43.882Z,75.14
2019-04-05T19:19:17.469Z,74.93
2019-04-05T19:21:46.013Z,75.07
2019-04-05T19:24:16.136Z,75.24
2019-04-05T19:26:46.473Z,75.33
2019-04-05T19:29:16.637Z,75.40
2019-04-05T19:49:30.561Z,76.89
2019-04-05T19:52:00.756Z,77.47
2019-04-05T19:54:30.872Z,77.49
2019-04-05T19:57:01.114Z,77.91
2019-04-05T19:59:31.197Z,78.47
2019-04-05T20:02:01.417Z,78.66
2019-04-05T20:04:31.604Z,78.76
2019-04-05T20:07:01.864Z,78.86
2019-04-05T20:09:32.194Z,79.22
2019-04-05T20:12:02.487Z,79.30
2019-04-05T20:14:32.749Z,79.39
2019-04-05T20:17:02.945Z,79.60
2019-04-05T20:19:33.101Z,79.96
2019-04-05T20:22:03.402Z,80.01
2019-04-05T20:24:33.585Z,80.00
2019-04-05T20:27:03.884Z,80.40
2019-04-05T20:29:34.153Z,80.95
2019-04-05T20:32:04.432Z,80.94
2019-04-05T20:34:34.684Z,81.13
2019-04-05T20:37:04.930Z,81.04
2019-04-05T20:39:35.048Z,81.82
2019-04-05T20:42:05.314Z,81.81
2019-04-05T20:44:35.474Z,81.95
2019-04-05T20:47:05.638Z,81.91
2019-04-05T20:49:35.810Z,81.42
2019-04-05T20:52:10.117Z,81.13
2019-04-05T20:54:40.206Z,81.06
2019-04-05T20:57:10.360Z,81.12
2019-04-05T20:59:40.460Z,81.18
2019-04-05T21:02:10.638Z,81.05
2019-04-05T21:04:40.762Z,81.19
2019-04-05T21:07:10.980Z,81.32
2019-04-05T21:09:41.148Z,80.72
2019-04-05T21:12:11.384Z,80.65
2019-04-05T21:14:41.528Z,80.86
2019-04-05T21:17:11.742Z,80.71
2019-04-05T21:19:41.916Z,80.72
2019-04-05T21:22:12.104Z,80.91
2019-04-05T21:24:42.357Z,81.02
2019-04-05T21:27:12.739Z,81.21
2019-04-05T21:29:43.154Z,81.60
2019-04-05T21:32:13.299Z,81.65
2019-04-05T21:34:43.528Z,81.64
2019-04-05T21:37:13.678Z,81.68
2019-04-05T21:39:43.866Z,81.47
2019-04-05T21:42:14.129Z,81.42
2019-04-05T21:44:46.327Z,81.88
2019-04-05T21:47:16.249Z,81.31
2019-04-05T21:49:46.451Z,81.27
2019-04-05T21:52:16.589Z,81.49
2019-04-05T21:54:47.853Z,80.88
2019-04-05T21:57:18.197Z,81.13
2019-04-05T21:59:48.376Z,80.90
2019-04-05T22:02:18.500Z,80.52
2019-04-05T22:04:49.829Z,80.78
2019-04-05T22:07:20.082Z,80.90
2019-04-05T22:09:50.257Z,80.62
2019-04-05T22:12:28.937Z,80.85
2019-04-05T22:14:59.039Z,80.61
2019-04-05T22:17:29.229Z,80.28
2019-04-05T22:19:59.418Z,80.40
2019-04-05T22:22:29.574Z,80.57
2019-04-05T22:24:59.823Z,79.91
2019-04-05T22:27:29.958Z,80.08
2019-04-05T22:30:00.236Z,80.35
2019-04-05T22:32:30.445Z,80.30
2019-04-05T22:35:00.646Z,80.28
2019-04-05T22:37:30.893Z,80.86
2019-04-05T22:40:01.130Z,80.72
2019-04-05T22:42:31.288Z,80.97
2019-04-05T22:45:01.480Z,80.88
2019-04-05T22:47:31.706Z,81.28
2019-04-05T22:50:01.919Z,81.24
2019-04-05T22:52:32.066Z,81.13
2019-04-05T22:55:11.102Z,80.92
2019-04-05T22:57:34.387Z,80.52
2019-04-05T23:00:04.846Z,80.58
2019-04-05T23:02:38.470Z,80.23
2019-04-05T23:05:08.774Z,80.65
2019-04-05T23:07:38.954Z,80.44
2019-04-05T23:10:09.450Z,79.94
2019-04-05T23:12:39.619Z,80.28
2019-04-05T23:15:10.103Z,80.29
2019-04-05T23:17:40.225Z,79.78
2019-04-05T23:20:11.313Z,80.00
2019-04-05T23:22:41.706Z,79.65
2019-04-05T23:25:21.417Z,79.48
2019-04-05T23:27:43.889Z,79.36
2019-04-05T23:30:14.567Z,79.53
2019-04-05T23:32:44.706Z,79.49
2019-04-05T23:35:14.924Z,79.74
2019-04-05T23:37:45.070Z,79.86
2019-04-05T23:40:15.193Z,79.55
2019-04-05T23:42:45.379Z,79.83
2019-04-05T23:45:15.556Z,79.57
2019-04-05T23:47:45.768Z,79.29
2019-04-05T23:50:16.245Z,79.13
2019-04-05T23:52:46.421Z,79.46
2019-04-05T23:55:16.573Z,79.63
2019-04-05T23:57:46.779Z,79.42
